Etusivu
METAR-TAF:

METAR-TAF

Lentoasemat :

Toledo Suburban Airport

Lambertville, Michigan, Yhdysvallat

Leveyspiiri: 41-44-09N, Pituuspiiri: 083-39-19W, korkeus merenpinnasta: 204 m

Tämänhetkinen sää

Tämä raportti tehtiin 26 minuuttia sitten, kello 05.35 UTC
Tuuli 16 kn lännestä puuskistuen 23 kn:hen
Lämpötila -6°C
Kosteus 79%
Ilmanpaine 1011 hPa
Näkyvyys: 16.1 km
Pilvistä 2100 ft:n korkeudessa

METAR: KDUH 190535Z AUTO 27016G23KT 10SM OVC021 M06/M09 A2986 RMK AO2 T10571095

Aika: 01:01 (06:01 UTC)


TAF: puuttuu

Säähavainnot ja -ennusteet yli 4000 lentoasemalta (METAR- ja TAF-raportit).

Käytössä olevat sääasemat on merkitty karttaan keltaisilla ja punaisilla pisteillä.

Aseta hiiri pisteen päälle nähdäksesi sääaseman nimen.

Klikkaa sitten nähdäksesi säähavainnot ja -ennusteet.

Kartan vaihtaminen: klikkaa mustalla rastilla varustettuja vihreitä pisteitä, niin voit zoomata sisään; viivalla varustettua vihreää pistettä, niin voit zoomata ulos tai vihreitä nuolia, niin pääset viereisille kartoille.


METAR-TAF: